createdAt,value
2018-08-24T00:00:41.590Z,9.97
2018-08-24T00:03:44.858Z,9.93
2018-08-24T00:06:48.194Z,10.50
2018-08-24T00:09:51.973Z,11.00
2018-08-24T00:12:55.359Z,11.63
2018-08-24T00:15:58.846Z,11.67
2018-08-24T00:19:02.095Z,10.60
2018-08-24T00:22:05.302Z,11.70
2018-08-24T00:25:08.490Z,12.20
2018-08-24T00:28:11.746Z,13.10
2018-08-24T00:31:14.947Z,13.87
2018-08-24T00:34:18.283Z,14.30
2018-08-24T00:37:21.548Z,14.03
2018-08-24T00:40:24.882Z,14.70
2018-08-24T00:43:28.219Z,15.60
2018-08-24T00:46:31.574Z,16.60
2018-08-24T00:49:34.942Z,16.27
2018-08-24T00:52:38.249Z,14.63
2018-08-24T00:55:41.439Z,15.97
2018-08-24T00:58:44.765Z,16.57
2018-08-24T01:01:48.026Z,15.53
2018-08-24T01:04:51.338Z,15.77
2018-08-24T01:07:59.930Z,15.37
2018-08-24T01:11:03.371Z,16.40
2018-08-24T01:14:06.690Z,16.40
2018-08-24T01:17:15.467Z,16.83
2018-08-24T01:20:23.165Z,16.00
2018-08-24T01:23:28.577Z,15.07
2018-08-24T01:26:31.804Z,16.67
2018-08-24T01:29:38.193Z,16.33
2018-08-24T01:32:41.478Z,15.60
2018-08-24T01:35:45.108Z,14.20
2018-08-24T01:38:48.405Z,14.40
2018-08-24T01:41:51.634Z,15.63
2018-08-24T01:44:54.953Z,15.30
2018-08-24T01:47:58.226Z,16.30
2018-08-24T01:51:01.518Z,16.93
2018-08-24T01:54:04.818Z,16.07
2018-08-24T01:57:08.037Z,15.97
2018-08-24T02:00:13.644Z,14.53
2018-08-24T02:03:16.929Z,21.80
2018-08-24T02:06:20.251Z,15.53
2018-08-24T02:09:23.835Z,14.20
2018-08-24T02:12:32.650Z,13.40
2018-08-24T02:15:40.398Z,13.67
2018-08-24T02:18:49.174Z,15.30
2018-08-24T02:21:58.086Z,14.07
2018-08-24T02:25:01.303Z,13.90
2018-08-24T02:28:04.962Z,14.50
2018-08-24T02:31:08.314Z,13.27
2018-08-24T02:34:11.563Z,12.83
2018-08-24T02:37:14.926Z,13.47
2018-08-24T02:40:18.258Z,13.00
2018-08-24T02:43:21.526Z,13.90
2018-08-24T02:46:24.750Z,14.00
2018-08-24T02:49:28.052Z,13.23
2018-08-24T02:52:31.507Z,12.23
2018-08-24T02:55:34.851Z,12.50
2018-08-24T02:58:38.118Z,14.47
2018-08-24T03:01:41.452Z,13.53
2018-08-24T03:04:44.764Z,14.30
2018-08-24T03:07:48.099Z,14.87
2018-08-24T03:10:51.434Z,14.13
2018-08-24T03:13:54.647Z,14.40
2018-08-24T03:17:03.574Z,14.93
2018-08-24T03:20:07.067Z,14.80
2018-08-24T03:23:10.351Z,15.33
2018-08-24T03:26:13.899Z,13.53
2018-08-24T03:29:17.282Z,13.33
2018-08-24T03:32:20.558Z,13.30
2018-08-24T03:35:23.852Z,11.90
2018-08-24T03:38:27.132Z,12.13
2018-08-24T03:41:30.416Z,12.20
2018-08-24T03:44:33.770Z,11.80
2018-08-24T03:47:46.821Z,10.47
2018-08-24T03:50:50.073Z,10.53
2018-08-24T03:53:53.402Z,10.00
2018-08-24T03:56:57.750Z,10.57
2018-08-24T04:00:01.022Z,10.77
2018-08-24T04:03:04.570Z,10.37
2018-08-24T04:06:08.027Z,8.40
2018-08-24T04:09:11.807Z,8.10
2018-08-24T04:12:15.254Z,7.40
2018-08-24T04:15:18.665Z,7.47
2018-08-24T04:18:21.854Z,7.70
2018-08-24T04:21:25.249Z,6.93
2018-08-24T04:24:28.550Z,6.73
2018-08-24T04:27:31.826Z,7.40
2018-08-24T04:30:35.107Z,7.50
2018-08-24T04:33:38.330Z,7.67
2018-08-24T04:36:41.586Z,6.93
2018-08-24T04:39:44.835Z,7.73
2018-08-24T04:42:48.372Z,8.20
2018-08-24T04:45:51.642Z,8.20
2018-08-24T04:48:54.929Z,7.63
2018-08-24T04:51:58.202Z,8.03
2018-08-24T04:55:01.406Z,7.97
2018-08-24T04:58:04.725Z,7.60
2018-08-24T05:01:08.073Z,7.90
2018-08-24T05:04:11.326Z,8.13
2018-08-24T05:07:14.626Z,7.90
2018-08-24T05:10:17.915Z,7.43
2018-08-24T05:13:21.225Z,7.33
2018-08-24T05:16:24.499Z,7.23
2018-08-24T05:19:27.813Z,7.90
2018-08-24T05:22:31.077Z,7.27
2018-08-24T05:25:34.388Z,6.30
2018-08-24T05:28:37.699Z,6.33
2018-08-24T05:31:40.982Z,6.57
2018-08-24T05:34:44.262Z,5.93
2018-08-24T05:37:47.487Z,6.50
2018-08-24T05:40:50.799Z,6.20
2018-08-24T05:43:54.087Z,5.90
2018-08-24T05:50:44.586Z,6.87
2018-08-24T05:53:47.964Z,6.40
2018-08-24T05:56:51.112Z,6.73
2018-08-24T05:59:54.462Z,6.83
2018-08-24T06:02:57.813Z,6.13
2018-08-24T06:06:01.517Z,6.57
2018-08-24T06:09:12.863Z,6.93
2018-08-24T06:12:16.156Z,7.27
2018-08-24T06:15:19.411Z,6.93
2018-08-24T06:18:22.703Z,6.70
2018-08-24T06:21:26.074Z,7.00
2018-08-24T06:24:29.396Z,7.20
2018-08-24T06:27:32.627Z,6.80
2018-08-24T06:30:35.910Z,6.93
2018-08-24T06:33:39.098Z,8.77
2018-08-24T06:36:42.383Z,10.30
2018-08-24T06:39:45.702Z,8.07
2018-08-24T06:42:49.007Z,7.57
2018-08-24T06:45:52.315Z,7.20
2018-08-24T06:48:55.648Z,7.83
2018-08-24T06:51:58.958Z,8.67
2018-08-24T06:55:02.364Z,13.37
2018-08-24T06:58:05.780Z,9.23
2018-08-24T07:01:09.098Z,9.07
2018-08-24T07:04:12.456Z,8.07
2018-08-24T07:07:15.804Z,8.60
2018-08-24T07:10:19.002Z,9.37
2018-08-24T07:13:22.227Z,9.33
2018-08-24T07:16:25.538Z,10.57
2018-08-24T07:19:45.927Z,11.53
2018-08-24T07:22:57.822Z,11.93
2018-08-24T07:26:06.301Z,10.90
2018-08-24T07:29:09.671Z,11.53
2018-08-24T07:32:12.970Z,11.43
2018-08-24T07:35:16.398Z,10.90
2018-08-24T07:38:19.638Z,12.53
2018-08-24T07:41:22.916Z,12.67
2018-08-24T07:44:26.337Z,12.23
2018-08-24T07:47:35.103Z,12.50
2018-08-24T07:50:38.447Z,11.83
2018-08-24T07:53:41.817Z,12.13
2018-08-24T07:56:45.091Z,12.47
2018-08-24T07:59:48.619Z,12.03
2018-08-24T08:02:51.912Z,11.57
2018-08-24T08:05:55.246Z,10.97
2018-08-24T08:08:58.766Z,10.80
2018-08-24T08:12:02.034Z,11.27
2018-08-24T08:15:09.423Z,10.97
2018-08-24T08:18:12.740Z,11.90
2018-08-24T08:21:16.022Z,11.80
2018-08-24T08:24:19.327Z,11.17
2018-08-24T08:27:22.630Z,11.33
2018-08-24T08:30:25.948Z,12.87
2018-08-24T08:33:29.254Z,12.37
2018-08-24T08:36:32.486Z,13.90
2018-08-24T08:39:35.726Z,14.47
2018-08-24T08:42:38.954Z,13.70
2018-08-24T08:45:42.165Z,13.63
2018-08-24T08:48:45.396Z,14.10
2018-08-24T08:51:48.732Z,15.00
2018-08-24T08:54:52.476Z,15.03
2018-08-24T08:57:55.913Z,14.63
2018-08-24T09:00:59.485Z,13.47
2018-08-24T09:04:03.132Z,13.60
2018-08-24T09:07:06.410Z,13.60
2018-08-24T09:10:09.684Z,13.40
2018-08-24T09:13:13.024Z,13.47
2018-08-24T09:16:16.308Z,13.53
2018-08-24T09:19:24.925Z,13.90
2018-08-24T09:22:33.754Z,11.53
2018-08-24T09:25:42.628Z,12.13
2018-08-24T09:28:46.231Z,11.30
2018-08-24T09:31:52.912Z,11.33
2018-08-24T09:34:56.442Z,11.93
2018-08-24T09:37:59.675Z,11.27
2018-08-24T09:41:02.889Z,11.47
2018-08-24T09:44:06.219Z,11.27
2018-08-24T09:47:15.094Z,11.20
2018-08-24T09:50:23.619Z,10.70
2018-08-24T09:53:32.334Z,10.20
2018-08-24T09:56:36.663Z,9.80
2018-08-24T09:59:39.922Z,9.30
2018-08-24T10:02:44.148Z,9.20
2018-08-24T10:05:52.704Z,9.53
2018-08-24T10:08:55.996Z,9.10
2018-08-24T10:11:59.308Z,8.70
2018-08-24T10:15:02.314Z,8.67
2018-08-24T10:18:05.714Z,8.83
2018-08-24T10:21:09.490Z,8.53
2018-08-24T10:24:12.710Z,7.60
2018-08-24T10:27:16.083Z,7.37
2018-08-24T10:30:21.466Z,7.10
2018-08-24T10:33:24.863Z,7.43
2018-08-24T10:36:28.175Z,6.90
2018-08-24T10:39:31.439Z,7.00
2018-08-24T10:42:34.696Z,6.87
2018-08-24T10:45:38.003Z,6.20
2018-08-24T10:48:41.355Z,7.33
2018-08-24T10:51:44.656Z,7.90
2018-08-24T10:54:47.919Z,7.57
2018-08-24T10:57:51.118Z,8.17
2018-08-24T11:00:54.398Z,8.13
2018-08-24T11:03:57.797Z,8.40
2018-08-24T11:07:01.073Z,8.37
2018-08-24T11:10:04.402Z,8.90
2018-08-24T11:13:07.927Z,9.50
2018-08-24T11:16:11.294Z,8.90
2018-08-24T11:19:14.575Z,9.10
2018-08-24T11:22:17.878Z,9.23
2018-08-24T11:25:21.237Z,8.57
2018-08-24T11:28:24.542Z,9.20
2018-08-24T11:31:27.822Z,8.07
2018-08-24T11:34:31.022Z,8.40
2018-08-24T11:37:34.326Z,9.57
2018-08-24T11:40:37.618Z,8.93
2018-08-24T11:43:40.986Z,9.70
2018-08-24T11:46:44.325Z,11.10
2018-08-24T11:49:49.255Z,11.67
2018-08-24T11:52:52.518Z,11.33
2018-08-24T11:55:55.794Z,12.47
2018-08-24T11:58:59.100Z,12.57
2018-08-24T12:02:02.349Z,10.97
2018-08-24T12:05:05.702Z,10.27
2018-08-24T12:08:09.205Z,9.73
2018-08-24T12:11:12.346Z,10.43
2018-08-24T12:14:15.737Z,10.20
2018-08-24T12:17:39.238Z,10.77
2018-08-24T12:20:42.572Z,10.53
2018-08-24T12:23:45.931Z,9.40
2018-08-24T12:26:49.219Z,14.23
2018-08-24T12:29:52.569Z,10.17
2018-08-24T12:32:55.790Z,10.10
2018-08-24T12:35:59.106Z,10.30
2018-08-24T12:42:32.026Z,10.50
2018-08-24T12:45:35.305Z,10.77
2018-08-24T12:48:38.621Z,10.13
2018-08-24T12:51:41.810Z,13.47
2018-08-24T12:54:45.158Z,10.37
2018-08-24T12:57:48.430Z,11.37
2018-08-24T13:00:51.718Z,9.23
2018-08-24T13:03:54.966Z,8.73
2018-08-24T13:06:58.214Z,7.87
2018-08-24T13:10:02.010Z,8.73
2018-08-24T13:13:07.141Z,8.03
2018-08-24T13:16:10.526Z,7.93
2018-08-24T13:19:13.722Z,7.63
2018-08-24T13:22:17.003Z,6.90
2018-08-24T13:25:20.300Z,7.20
2018-08-24T13:28:23.611Z,6.90
2018-08-24T13:31:26.850Z,7.10
2018-08-24T13:34:30.217Z,7.27
2018-08-24T13:37:33.438Z,6.33
2018-08-24T13:40:36.738Z,6.57
2018-08-24T13:43:40.090Z,6.20
2018-08-24T13:46:43.381Z,5.40
2018-08-24T13:49:46.634Z,5.83
2018-08-24T13:52:49.714Z,5.53
2018-08-24T13:55:52.808Z,5.50
2018-08-24T13:58:55.872Z,5.97
2018-08-24T14:01:58.956Z,6.60
2018-08-24T14:05:02.119Z,6.30
2018-08-24T14:08:05.198Z,5.90
2018-08-24T14:11:08.260Z,6.07
2018-08-24T14:14:11.369Z,5.97
2018-08-24T14:17:14.438Z,5.80
2018-08-24T14:20:18.304Z,5.47
2018-08-24T14:23:21.393Z,6.27
2018-08-24T14:26:24.525Z,5.43
2018-08-24T14:29:27.546Z,6.07
2018-08-24T14:32:30.629Z,5.87
2018-08-24T14:35:33.702Z,6.23
2018-08-24T14:38:36.795Z,6.17
2018-08-24T14:41:39.874Z,6.23
2018-08-24T14:44:42.934Z,6.70
2018-08-24T14:47:45.997Z,6.40
2018-08-24T14:50:49.065Z,6.83
2018-08-24T14:53:53.322Z,6.00
2018-08-24T14:56:56.397Z,6.40
2018-08-24T14:59:59.457Z,6.23
2018-08-24T15:03:09.461Z,6.47
2018-08-24T15:06:12.550Z,6.50
2018-08-24T15:09:15.614Z,5.93
2018-08-24T15:12:18.693Z,6.20
2018-08-24T15:15:21.761Z,5.90
2018-08-24T15:18:24.850Z,5.50
2018-08-24T15:21:27.937Z,5.50
2018-08-24T15:24:31.013Z,5.40
2018-08-24T15:27:34.085Z,4.67
2018-08-24T15:30:37.182Z,4.70
2018-08-24T15:33:40.232Z,4.20
2018-08-24T15:36:43.308Z,4.53
2018-08-24T15:39:46.398Z,4.57
2018-08-24T15:42:49.449Z,3.77
2018-08-24T15:45:52.637Z,3.60
2018-08-24T15:48:55.678Z,3.50
2018-08-24T15:51:58.745Z,3.33
2018-08-24T15:55:05.543Z,2.80
2018-08-24T15:58:08.606Z,2.83
2018-08-24T16:01:11.728Z,3.23
2018-08-24T16:04:14.793Z,3.90
2018-08-24T16:07:18.064Z,4.60
2018-08-24T16:10:21.141Z,3.50
2018-08-24T16:13:24.202Z,3.60
2018-08-24T16:16:27.367Z,3.10
2018-08-24T16:19:30.408Z,2.80
2018-08-24T16:22:33.482Z,3.27
2018-08-24T16:25:36.526Z,3.33
2018-08-24T16:28:39.582Z,3.40
2018-08-24T16:31:42.654Z,3.33
2018-08-24T16:34:45.734Z,3.70
2018-08-24T16:37:48.782Z,2.93
2018-08-24T16:40:51.858Z,5.43
2018-08-24T16:43:54.933Z,4.37
2018-08-24T16:46:58.005Z,7.97
2018-08-24T16:50:01.065Z,3.70
2018-08-24T16:53:04.145Z,4.00
2018-08-24T16:56:08.402Z,5.20
2018-08-24T16:59:11.491Z,4.73
2018-08-24T17:02:15.021Z,5.87
2018-08-24T17:05:19.188Z,3.80
2018-08-24T17:08:22.270Z,4.10
2018-08-24T17:11:25.341Z,4.97
2018-08-24T17:14:28.453Z,4.83
2018-08-24T17:17:31.546Z,5.23
2018-08-24T17:20:34.619Z,4.10
2018-08-24T17:23:37.675Z,5.90
2018-08-24T17:26:40.773Z,6.17
2018-08-24T17:29:43.850Z,3.43
2018-08-24T17:32:46.957Z,3.77
2018-08-24T17:35:50.064Z,4.70
2018-08-24T17:38:53.161Z,4.00
2018-08-24T17:41:56.334Z,4.70
2018-08-24T17:45:03.274Z,4.50
2018-08-24T17:48:06.517Z,4.30
2018-08-24T17:51:09.686Z,5.87
2018-08-24T17:54:13.067Z,4.70
2018-08-24T17:57:18.772Z,4.37
2018-08-24T18:00:21.994Z,4.73
2018-08-24T18:03:25.186Z,4.73
2018-08-24T18:06:28.418Z,5.43
2018-08-24T18:09:31.832Z,5.53
2018-08-24T18:12:35.237Z,5.60
2018-08-24T18:15:38.672Z,5.37
2018-08-24T18:18:41.923Z,3.93
2018-08-24T18:21:45.934Z,3.17
2018-08-24T18:24:49.281Z,3.70
2018-08-24T18:27:52.579Z,4.33
2018-08-24T18:30:56.007Z,7.60
2018-08-24T18:33:59.306Z,4.00
2018-08-24T18:37:02.782Z,3.30
2018-08-24T18:40:06.543Z,5.23
2018-08-24T18:43:09.849Z,10.00
2018-08-24T18:46:13.186Z,4.77
2018-08-24T18:49:16.528Z,3.90
2018-08-24T18:52:19.893Z,5.80
2018-08-24T18:55:23.312Z,3.80
2018-08-24T18:58:26.866Z,4.77
2018-08-24T19:01:30.215Z,3.63
2018-08-24T19:04:33.624Z,3.87
2018-08-24T19:07:36.862Z,3.63
2018-08-24T19:10:45.724Z,2.80
2018-08-24T19:13:49.144Z,3.03
2018-08-24T19:16:52.374Z,3.23
2018-08-24T19:20:01.010Z,6.20
2018-08-24T19:23:04.348Z,3.93
2018-08-24T19:26:07.639Z,3.97
2018-08-24T19:29:16.334Z,3.23
2018-08-24T19:32:19.611Z,3.77
2018-08-24T19:35:22.877Z,4.03
2018-08-24T19:38:26.131Z,3.77
2018-08-24T19:41:34.934Z,3.23
2018-08-24T19:44:38.208Z,6.93
2018-08-24T19:47:46.935Z,10.00
2018-08-24T19:51:13.317Z,5.13
2018-08-24T19:54:17.414Z,3.33
2018-08-24T19:57:26.172Z,4.00
2018-08-24T20:00:29.466Z,4.57
2018-08-24T20:03:32.743Z,3.67
2018-08-24T20:06:41.571Z,5.63
2018-08-24T20:09:50.143Z,2.67
2018-08-24T20:12:53.398Z,3.00
2018-08-24T20:16:02.191Z,2.33
2018-08-24T20:19:05.481Z,2.87
2018-08-24T20:22:15.239Z,3.77
2018-08-24T20:25:18.478Z,4.57
2018-08-24T20:28:21.854Z,6.80
2018-08-24T20:31:25.125Z,2.60
2018-08-24T20:34:28.454Z,3.30
2018-08-24T20:37:31.746Z,3.73
2018-08-24T20:40:35.107Z,5.07
2018-08-24T20:43:38.451Z,3.20
2018-08-24T20:46:41.743Z,5.00
2018-08-24T20:49:44.981Z,2.80
2018-08-24T20:52:48.265Z,2.97
2018-08-24T20:55:51.590Z,2.40
2018-08-24T20:58:54.855Z,4.57
2018-08-24T21:01:58.170Z,2.70
2018-08-24T21:05:01.474Z,3.30
2018-08-24T21:08:04.751Z,3.80
2018-08-24T21:11:07.989Z,3.93
2018-08-24T21:14:11.284Z,3.80
2018-08-24T21:17:14.553Z,2.53
2018-08-24T21:20:17.932Z,3.53
2018-08-24T21:23:21.154Z,3.57
2018-08-24T21:26:31.192Z,3.43
2018-08-24T21:29:34.503Z,3.30
2018-08-24T21:32:37.827Z,2.10
2018-08-24T21:35:41.266Z,2.60
2018-08-24T21:38:44.672Z,2.30
2018-08-24T21:41:48.037Z,2.20
2018-08-24T21:44:51.333Z,2.10
2018-08-24T21:47:54.636Z,2.60
2018-08-24T21:50:59.074Z,2.60
2018-08-24T21:54:02.568Z,2.53
2018-08-24T21:57:05.867Z,2.17
2018-08-24T22:00:13.637Z,2.57
2018-08-24T22:03:16.966Z,2.10
2018-08-24T22:06:20.290Z,2.97
2018-08-24T22:09:23.667Z,2.30
2018-08-24T22:12:26.966Z,2.40
2018-08-24T22:15:30.466Z,2.60
2018-08-24T22:18:33.742Z,2.20
2018-08-24T22:21:37.046Z,2.50
2018-08-24T22:24:40.375Z,2.20
2018-08-24T22:27:43.677Z,2.03
2018-08-24T22:30:46.910Z,2.10
2018-08-24T22:33:50.227Z,2.33
2018-08-24T22:36:53.560Z,2.27
2018-08-24T22:39:56.904Z,2.33
2018-08-24T22:43:00.120Z,2.30
2018-08-24T22:46:03.968Z,2.87
2018-08-24T22:49:07.237Z,2.40
2018-08-24T22:52:10.715Z,2.10
2018-08-24T22:55:14.098Z,2.67
2018-08-24T22:58:17.437Z,2.67
2018-08-24T23:01:21.581Z,2.63
2018-08-24T23:04:25.054Z,2.40
2018-08-24T23:07:28.346Z,3.27
2018-08-24T23:10:31.751Z,2.90
2018-08-24T23:13:35.002Z,2.73
2018-08-24T23:16:38.245Z,2.40
2018-08-24T23:19:41.663Z,2.87
2018-08-24T23:22:45.386Z,2.30
2018-08-24T23:25:48.662Z,2.17
2018-08-24T23:28:51.934Z,2.30
2018-08-24T23:31:55.153Z,2.30
2018-08-24T23:34:58.394Z,2.73
2018-08-24T23:38:01.736Z,2.50
2018-08-24T23:41:05.343Z,2.40
2018-08-24T23:44:09.131Z,3.03
2018-08-24T23:47:12.446Z,2.27
2018-08-24T23:50:15.768Z,2.20
2018-08-24T23:53:19.147Z,2.60
2018-08-24T23:56:22.540Z,2.23
2018-08-24T23:59:25.812Z,2.13
